sensor_id;sensor_type;location;lat;lon;timestamp;pressure;altitude;pressure_sealevel;temperature;humidity
22830;BME280;11581;51.250;6.778;2023-05-24T00:00:12;101922.66;;;12.45;48.55
22830;BME280;11581;51.250;6.778;2023-05-24T00:02:40;101926.47;;;12.43;48.54
22830;BME280;11581;51.250;6.778;2023-05-24T00:05:08;101954.81;;;12.55;48.79
22830;BME280;11581;51.250;6.778;2023-05-24T00:07:38;101911.09;;;12.24;49.57
22830;BME280;11581;51.250;6.778;2023-05-24T00:10:05;101918.75;;;12.29;48.76
22830;BME280;11581;51.250;6.778;2023-05-24T00:12:32;101910.81;;;12.18;49.03
22830;BME280;11581;51.250;6.778;2023-05-24T00:14:58;101930.56;;;12.26;49.06
22830;BME280;11581;51.250;6.778;2023-05-24T00:17:25;101871.56;;;11.87;49.53
22830;BME280;11581;51.250;6.778;2023-05-24T00:19:54;101950.47;;;12.33;49.37
22830;BME280;11581;51.250;6.778;2023-05-24T00:22:21;101931.34;;;12.17;49.40
22830;BME280;11581;51.250;6.778;2023-05-24T00:24:49;101864.31;;;11.78;49.66
22830;BME280;11581;51.250;6.778;2023-05-24T00:27:15;101877.19;;;11.84;49.47
22830;BME280;11581;51.250;6.778;2023-05-24T00:29:42;101947.84;;;12.22;49.78
22830;BME280;11581;51.250;6.778;2023-05-24T00:32:09;101935.38;;;12.12;50.00
22830;BME280;11581;51.250;6.778;2023-05-24T00:34:35;101872.03;;;11.71;49.86
22830;BME280;11581;51.250;6.778;2023-05-24T00:37:03;101945.94;;;12.13;50.10
22830;BME280;11581;51.250;6.778;2023-05-24T00:39:29;101944.41;;;12.11;50.14
22830;BME280;11581;51.250;6.778;2023-05-24T00:41:56;101945.47;;;12.08;50.33
22830;BME280;11581;51.250;6.778;2023-05-24T00:44:22;101901.03;;;11.76;50.48
22830;BME280;11581;51.250;6.778;2023-05-24T00:46:50;101941.50;;;12.03;50.62
22830;BME280;11581;51.250;6.778;2023-05-24T00:49:18;101954.16;;;12.01;50.88
22830;BME280;11581;51.250;6.778;2023-05-24T00:51:45;101924.47;;;11.83;50.67
22830;BME280;11581;51.250;6.778;2023-05-24T00:54:12;101962.69;;;11.95;50.60
22830;BME280;11581;51.250;6.778;2023-05-24T00:56:40;101943.38;;;11.91;50.80
22830;BME280;11581;51.250;6.778;2023-05-24T00:59:08;101947.16;;;11.89;50.69
22830;BME280;11581;51.250;6.778;2023-05-24T01:01:37;101891.25;;;11.54;51.11
22830;BME280;11581;51.250;6.778;2023-05-24T01:04:06;101852.31;;;11.29;50.80
22830;BME280;11581;51.250;6.778;2023-05-24T01:06:39;101894.28;;;11.50;52.07
22830;BME280;11581;51.250;6.778;2023-05-24T01:09:29;101934.34;;;11.72;52.46
22830;BME280;11581;51.250;6.778;2023-05-24T01:17:39;101933.59;;;11.59;52.57
22830;BME280;11581;51.250;6.778;2023-05-24T01:20:12;101780.16;;;10.66;51.77
22830;BME280;11581;51.250;6.778;2023-05-24T01:28:17;101872.28;;;11.14;51.88
22830;BME280;11581;51.250;6.778;2023-05-24T01:30:47;101873.38;;;11.12;51.79
22830;BME280;11581;51.250;6.778;2023-05-24T01:33:14;101686.94;;;9.99;52.00
22830;BME280;11581;51.250;6.778;2023-05-24T01:35:41;101928.09;;;11.40;52.36
22830;BME280;11581;51.250;6.778;2023-05-24T01:38:08;101881.75;;;11.07;52.20
22830;BME280;11581;51.250;6.778;2023-05-24T01:40:37;101896.53;;;11.22;52.27
22830;BME280;11581;51.250;6.778;2023-05-24T01:43:37;101923.34;;;11.32;53.91
22830;BME280;11581;51.250;6.778;2023-05-24T01:46:12;101917.16;;;11.31;53.73
22830;BME280;11581;51.250;6.778;2023-05-24T01:48:54;101911.94;;;11.30;53.82
22830;BME280;11581;51.250;6.778;2023-05-24T01:51:31;101837.63;;;10.81;53.58
22830;BME280;11581;51.250;6.778;2023-05-24T01:54:03;101733.28;;;10.20;53.29
22830;BME280;11581;51.250;6.778;2023-05-24T01:56:33;101915.97;;;11.24;53.27
22830;BME280;11581;51.250;6.778;2023-05-24T01:59:01;101862.50;;;10.93;53.40
22830;BME280;11581;51.250;6.778;2023-05-24T02:01:28;101823.31;;;10.71;53.11
22830;BME280;11581;51.250;6.778;2023-05-24T02:03:56;101912.78;;;11.19;53.21
22830;BME280;11581;51.250;6.778;2023-05-24T02:06:23;101580.72;;;9.17;53.12
22830;BME280;11581;51.250;6.778;2023-05-24T02:08:49;101890.13;;;11.03;53.63
22830;BME280;11581;51.250;6.778;2023-05-24T02:11:17;101616.66;;;9.23;53.50
22830;BME280;11581;51.250;6.778;2023-05-24T02:13:45;101889.19;;;10.93;53.63
22830;BME280;11581;51.250;6.778;2023-05-24T02:16:12;101879.47;;;10.92;53.86
22830;BME280;11581;51.250;6.778;2023-05-24T02:18:40;101906.50;;;11.09;53.57
22830;BME280;11581;51.250;6.778;2023-05-24T02:21:08;101873.16;;;10.93;53.58
22830;BME280;11581;51.250;6.778;2023-05-24T02:23:36;101874.25;;;10.90;54.14
22830;BME280;11581;51.250;6.778;2023-05-24T02:26:02;101706.22;;;9.91;54.16
22830;BME280;11581;51.250;6.778;2023-05-24T02:28:29;101870.88;;;10.88;53.76
22830;BME280;11581;51.250;6.778;2023-05-24T02:30:57;101825.25;;;10.58;54.36
22830;BME280;11581;51.250;6.778;2023-05-24T02:33:23;101889.53;;;10.77;54.54
22830;BME280;11581;51.250;6.778;2023-05-24T02:35:50;101879.22;;;10.84;54.63
22830;BME280;11581;51.250;6.778;2023-05-24T02:38:17;101771.22;;;10.23;54.80
22830;BME280;11581;51.250;6.778;2023-05-24T02:40:44;101849.53;;;10.66;54.83
22830;BME280;11581;51.250;6.778;2023-05-24T02:43:11;101911.13;;;10.96;54.86
22830;BME280;11581;51.250;6.778;2023-05-24T02:45:37;101774.47;;;10.16;55.07
22830;BME280;11581;51.250;6.778;2023-05-24T02:48:04;101567.50;;;8.93;54.79
22830;BME280;11581;51.250;6.778;2023-05-24T02:50:31;101855.72;;;10.45;55.08
22830;BME280;11581;51.250;6.778;2023-05-24T02:52:57;101879.34;;;10.71;55.23
22830;BME280;11581;51.250;6.778;2023-05-24T02:55:24;101908.13;;;10.90;55.32
22830;BME280;11581;51.250;6.778;2023-05-24T02:57:51;101867.94;;;10.58;55.54
22830;BME280;11581;51.250;6.778;2023-05-24T03:00:18;101896.22;;;10.72;55.40
22830;BME280;11581;51.250;6.778;2023-05-24T03:02:45;101863.94;;;10.53;55.46
22830;BME280;11581;51.250;6.778;2023-05-24T03:05:16;101927.28;;;10.84;55.73
22830;BME280;11581;51.250;6.778;2023-05-24T03:07:44;101838.00;;;10.33;55.90
22830;BME280;11581;51.250;6.778;2023-05-24T03:10:10;101857.25;;;10.25;55.85
22830;BME280;11581;51.250;6.778;2023-05-24T03:12:38;101923.16;;;10.80;56.18
22830;BME280;11581;51.250;6.778;2023-05-24T03:15:06;101840.66;;;10.33;56.49
22830;BME280;11581;51.250;6.778;2023-05-24T03:17:32;101761.69;;;9.86;56.48
22830;BME280;11581;51.250;6.778;2023-05-24T03:19:59;101879.59;;;10.57;56.66
22830;BME280;11581;51.250;6.778;2023-05-24T03:22:30;101928.09;;;10.73;56.60
22830;BME280;11581;51.250;6.778;2023-05-24T03:24:57;101875.59;;;10.41;56.72
22830;BME280;11581;51.250;6.778;2023-05-24T03:27:24;101872.06;;;10.40;56.66
22830;BME280;11581;51.250;6.778;2023-05-24T03:29:53;101783.97;;;9.96;57.24
22830;BME280;11581;51.250;6.778;2023-05-24T03:32:23;101907.97;;;10.69;57.43
22830;BME280;11581;51.250;6.778;2023-05-24T03:34:49;101864.53;;;10.34;57.48
22830;BME280;11581;51.250;6.778;2023-05-24T03:37:17;101924.22;;;10.66;57.66
22830;BME280;11581;51.250;6.778;2023-05-24T03:39:44;101840.25;;;10.15;57.64
22830;BME280;11581;51.250;6.778;2023-05-24T03:42:28;101886.63;;;10.47;57.74
22830;BME280;11581;51.250;6.778;2023-05-24T03:44:55;101791.75;;;9.88;57.79
22830;BME280;11581;51.250;6.778;2023-05-24T03:47:21;101946.78;;;10.62;57.98
22830;BME280;11581;51.250;6.778;2023-05-24T03:49:48;101821.88;;;9.89;57.92
22830;BME280;11581;51.250;6.778;2023-05-24T03:52:15;101929.19;;;10.60;58.26
22830;BME280;11581;51.250;6.778;2023-05-24T03:54:42;101935.38;;;10.60;58.48
22830;BME280;11581;51.250;6.778;2023-05-24T03:57:10;101827.84;;;10.03;58.29
22830;BME280;11581;51.250;6.778;2023-05-24T03:59:36;101748.66;;;9.60;58.31
22830;BME280;11581;51.250;6.778;2023-05-24T04:02:05;101810.09;;;9.80;58.46
22830;BME280;11581;51.250;6.778;2023-05-24T04:04:32;101809.81;;;9.96;58.48
22830;BME280;11581;51.250;6.778;2023-05-24T04:06:58;101626.50;;;8.87;58.74
22830;BME280;11581;51.250;6.778;2023-05-24T04:09:26;101941.94;;;10.67;58.64
22830;BME280;11581;51.250;6.778;2023-05-24T04:11:52;101795.63;;;9.95;58.81
22830;BME280;11581;51.250;6.778;2023-05-24T04:14:19;101913.91;;;10.73;58.92
22830;BME280;11581;51.250;6.778;2023-05-24T04:16:46;101922.41;;;10.78;59.05
22830;BME280;11581;51.250;6.778;2023-05-24T04:19:12;101783.97;;;9.96;59.39
22830;BME280;11581;51.250;6.778;2023-05-24T04:21:39;101879.25;;;10.51;59.25
22830;BME280;11581;51.250;6.778;2023-05-24T04:24:05;101906.53;;;10.65;59.24
22830;BME280;11581;51.250;6.778;2023-05-24T04:26:33;101812.50;;;10.18;59.26
22830;BME280;11581;51.250;6.778;2023-05-24T04:29:02;101888.09;;;10.73;59.38
22830;BME280;11581;51.250;6.778;2023-05-24T04:31:29;101757.56;;;9.93;59.23
22830;BME280;11581;51.250;6.778;2023-05-24T04:33:57;101866.38;;;10.67;59.27
22830;BME280;11581;51.250;6.778;2023-05-24T04:36:24;101943.41;;;11.15;59.65
22830;BME280;11581;51.250;6.778;2023-05-24T04:38:52;101949.09;;;11.22;59.81
22830;BME280;11581;51.250;6.778;2023-05-24T04:41:20;101923.84;;;11.15;59.81
22830;BME280;11581;51.250;6.778;2023-05-24T04:43:48;101936.22;;;11.38;59.81
22830;BME280;11581;51.250;6.778;2023-05-24T04:46:14;101896.53;;;11.22;60.33
22830;BME280;11581;51.250;6.778;2023-05-24T04:48:41;101857.69;;;11.18;60.26
22830;BME280;11581;51.250;6.778;2023-05-24T04:51:08;101859.38;;;11.19;60.44
22830;BME280;11581;51.250;6.778;2023-05-24T04:53:34;101912.81;;;11.73;60.72
22830;BME280;11581;51.250;6.778;2023-05-24T04:56:02;101851.56;;;11.50;60.48
22830;BME280;11581;51.250;6.778;2023-05-24T04:58:29;101841.47;;;11.85;60.08
22830;BME280;11581;51.250;6.778;2023-05-24T05:00:55;101936.72;;;12.68;59.45
22830;BME280;11581;51.250;6.778;2023-05-24T05:03:22;101943.03;;;12.87;58.75
22830;BME280;11581;51.250;6.778;2023-05-24T05:05:49;101741.44;;;11.87;58.07
22830;BME280;11581;51.250;6.778;2023-05-24T05:08:16;101888.81;;;12.95;57.69
22830;BME280;11581;51.250;6.778;2023-05-24T05:10:43;101943.97;;;13.37;57.02
22830;BME280;11581;51.250;6.778;2023-05-24T05:13:09;101902.50;;;13.31;56.41
22830;BME280;11581;51.250;6.778;2023-05-24T05:15:35;101975.66;;;13.81;55.91
22830;BME280;11581;51.250;6.778;2023-05-24T05:18:02;101972.88;;;13.92;55.97
22830;BME280;11581;51.250;6.778;2023-05-24T05:20:29;101912.44;;;13.69;55.80
22830;BME280;11581;51.250;6.778;2023-05-24T05:22:55;101977.81;;;14.16;55.62
22830;BME280;11581;51.250;6.778;2023-05-24T05:25:22;101911.19;;;13.92;55.56
22830;BME280;11581;51.250;6.778;2023-05-24T05:27:48;101957.09;;;14.27;55.29
22830;BME280;11581;51.250;6.778;2023-05-24T05:30:15;101975.13;;;14.63;54.90
22830;BME280;11581;51.250;6.778;2023-05-24T05:32:41;101975.38;;;14.79;54.87
22830;BME280;11581;51.250;6.778;2023-05-24T05:35:08;101960.78;;;14.91;54.35
22830;BME280;11581;51.250;6.778;2023-05-24T05:37:35;101913.75;;;14.78;54.05
22830;BME280;11581;51.250;6.778;2023-05-24T05:40:01;101904.06;;;14.94;53.40
22830;BME280;11581;51.250;6.778;2023-05-24T05:42:29;101962.09;;;15.51;53.00
22830;BME280;11581;51.250;6.778;2023-05-24T05:44:56;101973.03;;;15.67;52.15
22830;BME280;11581;51.250;6.778;2023-05-24T05:47:22;101957.38;;;15.80;51.87
22830;BME280;11581;51.250;6.778;2023-05-24T05:49:49;101840.56;;;15.20;51.30
22830;BME280;11581;51.250;6.778;2023-05-24T05:52:16;101869.03;;;15.40;50.87
22830;BME280;11581;51.250;6.778;2023-05-24T05:54:42;101916.16;;;15.80;50.79
22830;BME280;11581;51.250;6.778;2023-05-24T05:57:09;101964.44;;;16.16;50.61
22830;BME280;11581;51.250;6.778;2023-05-24T05:59:36;101947.38;;;16.08;50.29
22830;BME280;11581;51.250;6.778;2023-05-24T06:02:03;101851.00;;;15.50;50.16
22830;BME280;11581;51.250;6.778;2023-05-24T06:04:31;101910.25;;;15.94;49.90
22830;BME280;11581;51.250;6.778;2023-05-24T06:06:58;101959.72;;;16.36;49.96
22830;BME280;11581;51.250;6.778;2023-05-24T06:09:24;101791.47;;;15.45;50.04
22830;BME280;11581;51.250;6.778;2023-05-24T06:11:51;101837.31;;;15.79;50.17
22830;BME280;11581;51.250;6.778;2023-05-24T06:14:18;101906.84;;;16.27;50.22
22830;BME280;11581;51.250;6.778;2023-05-24T06:16:50;101850.94;;;16.21;50.41
22830;BME280;11581;51.250;6.778;2023-05-24T06:19:19;101951.66;;;17.04;50.46
22830;BME280;11581;51.250;6.778;2023-05-24T06:21:47;101783.97;;;16.18;50.15
22830;BME280;11581;51.250;6.778;2023-05-24T06:24:15;101953.78;;;17.60;49.40
22830;BME280;11581;51.250;6.778;2023-05-24T06:26:45;101795.09;;;16.82;48.91
22830;BME280;11581;51.250;6.778;2023-05-24T06:29:12;101953.19;;;17.98;47.86
22830;BME280;11581;51.250;6.778;2023-05-24T06:31:39;101839.63;;;17.51;47.06
22830;BME280;11581;51.250;6.778;2023-05-24T06:34:06;101978.22;;;18.48;46.90
22830;BME280;11581;51.250;6.778;2023-05-24T06:36:33;101926.88;;;18.32;46.56
22830;BME280;11581;51.250;6.778;2023-05-24T06:39:00;101859.38;;;18.00;46.22
22830;BME280;11581;51.250;6.778;2023-05-24T06:41:28;101871.16;;;18.23;46.49
22830;BME280;11581;51.250;6.778;2023-05-24T06:43:54;101895.81;;;18.36;45.90
22830;BME280;11581;51.250;6.778;2023-05-24T06:46:21;101977.41;;;19.18;46.41
22830;BME280;11581;51.250;6.778;2023-05-24T06:48:48;101784.06;;;18.45;47.05
22830;BME280;11581;51.250;6.778;2023-05-24T06:51:15;101895.09;;;19.59;48.10
22830;BME280;11581;51.250;6.778;2023-05-24T06:53:41;101832.16;;;19.80;47.51
22830;BME280;11581;51.250;6.778;2023-05-24T06:56:08;101902.09;;;20.88;46.20
22830;BME280;11581;51.250;6.778;2023-05-24T06:58:35;101994.50;;;22.09;44.98
22830;BME280;11581;51.250;6.778;2023-05-24T07:01:06;101992.16;;;22.90;44.21
22830;BME280;11581;51.250;6.778;2023-05-24T07:03:33;101868.94;;;22.96;42.12
22830;BME280;11581;51.250;6.778;2023-05-24T07:06:01;101906.03;;;24.05;41.08
22830;BME280;11581;51.250;6.778;2023-05-24T07:08:28;101944.81;;;24.85;38.88
22830;BME280;11581;51.250;6.778;2023-05-24T07:10:55;101861.50;;;24.82;37.33
22830;BME280;11581;51.250;6.778;2023-05-24T07:13:21;101767.78;;;24.64;35.83
22830;BME280;11581;51.250;6.778;2023-05-24T07:15:48;101953.34;;;25.78;34.76
22830;BME280;11581;51.250;6.778;2023-05-24T07:18:16;101995.41;;;25.70;33.71
22830;BME280;11581;51.250;6.778;2023-05-24T07:20:42;101958.50;;;25.55;33.62
22830;BME280;11581;51.250;6.778;2023-05-24T07:23:09;101951.44;;;25.28;34.39
22830;BME280;11581;51.250;6.778;2023-05-24T07:25:36;101790.50;;;24.06;34.29
22830;BME280;11581;51.250;6.778;2023-05-24T07:28:03;101976.09;;;25.02;34.21
22830;BME280;11581;51.250;6.778;2023-05-24T07:30:30;101862.41;;;24.18;34.58
22830;BME280;11581;51.250;6.778;2023-05-24T07:32:56;101970.03;;;24.74;34.53
22830;BME280;11581;51.250;6.778;2023-05-24T07:35:23;101925.72;;;24.33;34.87
22830;BME280;11581;51.250;6.778;2023-05-24T07:37:50;101746.84;;;23.27;34.63
22830;BME280;11581;51.250;6.778;2023-05-24T07:40:17;101949.41;;;24.26;34.38
22830;BME280;11581;51.250;6.778;2023-05-24T07:42:43;101814.69;;;23.35;34.34
22830;BME280;11581;51.250;6.778;2023-05-24T07:45:11;101904.03;;;23.79;34.16
22830;BME280;11581;51.250;6.778;2023-05-24T07:47:38;101869.75;;;23.24;33.92
22830;BME280;11581;51.250;6.778;2023-05-24T07:50:05;101881.88;;;22.94;34.16
22830;BME280;11581;51.250;6.778;2023-05-24T07:52:32;101866.59;;;22.59;34.81
22830;BME280;11581;51.250;6.778;2023-05-24T07:54:59;101892.84;;;22.46;35.19
22830;BME280;11581;51.250;6.778;2023-05-24T07:57:26;101899.47;;;22.37;36.05
22830;BME280;11581;51.250;6.778;2023-05-24T07:59:52;101908.59;;;22.29;36.02
22830;BME280;11581;51.250;6.778;2023-05-24T08:02:19;101781.47;;;21.55;36.51
22830;BME280;11581;51.250;6.778;2023-05-24T08:04:46;101883.91;;;22.24;36.80
22830;BME280;11581;51.250;6.778;2023-05-24T08:07:13;101924.72;;;22.52;36.83
22830;BME280;11581;51.250;6.778;2023-05-24T08:09:40;101863.69;;;22.61;36.04
22830;BME280;11581;51.250;6.778;2023-05-24T08:12:07;101878.94;;;22.89;35.85
22830;BME280;11581;51.250;6.778;2023-05-24T08:14:33;101955.91;;;23.51;35.40
22830;BME280;11581;51.250;6.778;2023-05-24T08:17:00;101832.16;;;23.07;35.44
22830;BME280;11581;51.250;6.778;2023-05-24T08:19:27;101967.22;;;24.09;35.72
22830;BME280;11581;51.250;6.778;2023-05-24T08:22:00;101835.47;;;23.62;35.55
22830;BME280;11581;51.250;6.778;2023-05-24T08:24:30;101968.31;;;24.99;35.63
22830;BME280;11581;51.250;6.778;2023-05-24T08:26:57;101972.44;;;25.47;35.54
22830;BME280;11581;51.250;6.778;2023-05-24T08:29:24;101929.31;;;25.93;34.83
22830;BME280;11581;51.250;6.778;2023-05-24T08:31:50;101955.06;;;26.90;33.72
22830;BME280;11581;51.250;6.778;2023-05-24T08:34:17;101947.81;;;27.56;32.05
22830;BME280;11581;51.250;6.778;2023-05-24T08:36:44;101959.41;;;28.17;30.67
22830;BME280;11581;51.250;6.778;2023-05-24T08:39:11;101930.34;;;28.40;29.16
22830;BME280;11581;51.250;6.778;2023-05-24T08:41:39;101947.72;;;28.52;27.95
22830;BME280;11581;51.250;6.778;2023-05-24T08:44:07;101660.72;;;26.58;28.08
22830;BME280;11581;51.250;6.778;2023-05-24T08:46:34;101667.72;;;26.36;27.97
22830;BME280;11581;51.250;6.778;2023-05-24T08:49:01;101933.34;;;27.49;27.71
22830;BME280;11581;51.250;6.778;2023-05-24T08:51:30;101928.00;;;27.00;28.09
22830;BME280;11581;51.250;6.778;2023-05-24T08:54:00;101913.53;;;26.51;27.91
22830;BME280;11581;51.250;6.778;2023-05-24T08:56:27;101962.66;;;26.39;29.12
22830;BME280;11581;51.250;6.778;2023-05-24T08:58:54;101900.97;;;25.87;29.70
22830;BME280;11581;51.250;6.778;2023-05-24T09:01:23;101951.56;;;26.03;29.54
22830;BME280;11581;51.250;6.778;2023-05-24T09:03:51;101872.41;;;25.46;29.46
22830;BME280;11581;51.250;6.778;2023-05-24T09:06:19;101862.78;;;25.37;29.60
22830;BME280;11581;51.250;6.778;2023-05-24T09:08:50;101621.59;;;23.79;29.70
22830;BME280;11581;51.250;6.778;2023-05-24T09:11:18;101883.50;;;24.94;29.53
22830;BME280;11581;51.250;6.778;2023-05-24T09:13:47;101958.19;;;25.32;30.13
22830;BME280;11581;51.250;6.778;2023-05-24T09:16:14;101968.47;;;25.17;30.94
22830;BME280;11581;51.250;6.778;2023-05-24T09:18:44;101950.00;;;25.19;30.84
22830;BME280;11581;51.250;6.778;2023-05-24T09:21:11;101913.31;;;25.02;31.66
22830;BME280;11581;51.250;6.778;2023-05-24T09:23:39;101912.84;;;25.18;31.07
22830;BME280;11581;51.250;6.778;2023-05-24T09:26:07;101816.44;;;24.67;30.89
22830;BME280;11581;51.250;6.778;2023-05-24T09:28:35;101956.84;;;25.54;30.41
22830;BME280;11581;51.250;6.778;2023-05-24T09:31:03;101922.69;;;25.19;30.48
22830;BME280;11581;51.250;6.778;2023-05-24T09:33:33;101950.59;;;25.40;30.07
22830;BME280;11581;51.250;6.778;2023-05-24T09:36:02;101858.38;;;24.72;30.45
22830;BME280;11581;51.250;6.778;2023-05-24T09:38:29;101962.78;;;25.18;30.82
22830;BME280;11581;51.250;6.778;2023-05-24T09:41:06;101931.81;;;24.87;30.60
22830;BME280;11581;51.250;6.778;2023-05-24T09:43:47;101906.19;;;24.62;30.50
22830;BME280;11581;51.250;6.778;2023-05-24T09:46:18;101905.63;;;24.73;30.39
22830;BME280;11581;51.250;6.778;2023-05-24T09:48:56;101876.44;;;24.54;29.69
22830;BME280;11581;51.250;6.778;2023-05-24T09:51:23;101789.22;;;23.88;29.96
22830;BME280;11581;51.250;6.778;2023-05-24T09:53:50;101875.59;;;24.40;30.29
22830;BME280;11581;51.250;6.778;2023-05-24T09:56:17;101920.06;;;24.60;30.68
22830;BME280;11581;51.250;6.778;2023-05-24T09:58:44;101951.97;;;24.73;31.00
22830;BME280;11581;51.250;6.778;2023-05-24T10:01:11;101940.63;;;24.82;31.76
22830;BME280;11581;51.250;6.778;2023-05-24T10:03:51;101932.41;;;25.02;30.33
22830;BME280;11581;51.250;6.778;2023-05-24T10:06:18;101922.28;;;25.22;30.36
22830;BME280;11581;51.250;6.778;2023-05-24T10:08:50;101740.16;;;24.28;30.07
22830;BME280;11581;51.250;6.778;2023-05-24T10:11:18;101915.66;;;25.55;30.10
22830;BME280;11581;51.250;6.778;2023-05-24T10:13:46;101945.41;;;25.70;30.06
22830;BME280;11581;51.250;6.778;2023-05-24T10:16:13;101869.66;;;25.46;29.63
22830;BME280;11581;51.250;6.778;2023-05-24T10:18:39;101926.78;;;25.91;29.66
22830;BME280;11581;51.250;6.778;2023-05-24T10:21:07;101940.03;;;25.94;29.32
22830;BME280;11581;51.250;6.778;2023-05-24T10:23:36;101938.56;;;25.92;29.12
22830;BME280;11581;51.250;6.778;2023-05-24T10:26:06;101813.91;;;24.72;28.79
22830;BME280;11581;51.250;6.778;2023-05-24T10:28:45;101931.75;;;25.70;28.67
22830;BME280;11581;51.250;6.778;2023-05-24T10:31:30;101871.28;;;25.09;29.24
22830;BME280;11581;51.250;6.778;2023-05-24T10:33:59;101786.06;;;24.44;29.47
22830;BME280;11581;51.250;6.778;2023-05-24T10:36:28;101727.81;;;23.92;29.13
22830;BME280;11581;51.250;6.778;2023-05-24T10:38:55;101886.72;;;24.65;29.26
22830;BME280;11581;51.250;6.778;2023-05-24T10:41:26;101902.88;;;24.47;29.33
22830;BME280;11581;51.250;6.778;2023-05-24T10:43:52;101610.59;;;22.49;29.79
22830;BME280;11581;51.250;6.778;2023-05-24T10:46:20;101793.78;;;23.42;30.13
22830;BME280;11581;51.250;6.778;2023-05-24T10:49:00;101760.19;;;23.16;30.18
22830;BME280;11581;51.250;6.778;2023-05-24T10:51:35;101826.88;;;23.52;30.36
22830;BME280;11581;51.250;6.778;2023-05-24T10:54:17;101832.31;;;23.52;30.34
22830;BME280;11581;51.250;6.778;2023-05-24T10:56:47;101854.16;;;23.78;30.98
22830;BME280;11581;51.250;6.778;2023-05-24T11:01:54;101919.66;;;24.44;30.02
22830;BME280;11581;51.250;6.778;2023-05-24T11:04:21;101901.41;;;24.51;30.47
22830;BME280;11581;51.250;6.778;2023-05-24T11:09:16;101885.63;;;24.85;29.47
22830;BME280;11581;51.250;6.778;2023-05-24T11:11:45;101807.44;;;24.47;29.41
22830;BME280;11581;51.250;6.778;2023-05-24T11:14:16;101911.41;;;25.09;28.72
22830;BME280;11581;51.250;6.778;2023-05-24T11:16:45;101756.31;;;24.10;28.86
22830;BME280;11581;51.250;6.778;2023-05-24T11:19:22;101866.78;;;24.64;28.16
22830;BME280;11581;51.250;6.778;2023-05-24T11:21:50;101914.59;;;24.86;28.74
22830;BME280;11581;51.250;6.778;2023-05-24T11:24:18;101884.41;;;24.55;28.94
22830;BME280;11581;51.250;6.778;2023-05-24T11:26:45;101890.47;;;24.57;28.92
22830;BME280;11581;51.250;6.778;2023-05-24T11:29:13;101890.50;;;24.31;28.72
22830;BME280;11581;51.250;6.778;2023-05-24T11:31:55;101867.44;;;24.14;28.54
22830;BME280;11581;51.250;6.778;2023-05-24T11:34:26;101900.38;;;24.19;28.57
22830;BME280;11581;51.250;6.778;2023-05-24T11:36:54;101915.44;;;24.09;28.66
22830;BME280;11581;51.250;6.778;2023-05-24T11:39:21;101908.63;;;23.78;28.69
22830;BME280;11581;51.250;6.778;2023-05-24T11:41:48;101883.81;;;23.34;29.02
22830;BME280;11581;51.250;6.778;2023-05-24T11:44:16;101718.34;;;22.23;29.50
22830;BME280;11581;51.250;6.778;2023-05-24T11:46:44;101530.00;;;20.86;29.78
22830;BME280;11581;51.250;6.778;2023-05-24T11:49:14;101781.81;;;22.15;30.09
22830;BME280;11581;51.250;6.778;2023-05-24T11:51:41;101872.34;;;22.43;30.43
22830;BME280;11581;51.250;6.778;2023-05-24T11:54:09;101794.94;;;21.84;30.65
22830;BME280;11581;51.250;6.778;2023-05-24T11:56:35;101816.31;;;21.72;30.91
22830;BME280;11581;51.250;6.778;2023-05-24T12:01:37;101930.47;;;22.00;31.19
22830;BME280;11581;51.250;6.778;2023-05-24T12:04:07;101776.91;;;20.99;31.37
22830;BME280;11581;51.250;6.778;2023-05-24T12:06:42;101854.19;;;21.38;32.28
22830;BME280;11581;51.250;6.778;2023-05-24T12:09:10;101802.75;;;20.95;31.92
22830;BME280;11581;51.250;6.778;2023-05-24T12:11:56;101832.94;;;21.06;32.66
22830;BME280;11581;51.250;6.778;2023-05-24T12:14:26;101910.00;;;21.47;32.53
22830;BME280;11581;51.250;6.778;2023-05-24T12:16:55;101861.03;;;21.20;32.49
22830;BME280;11581;51.250;6.778;2023-05-24T12:19:23;101891.41;;;21.30;32.37
22830;BME280;11581;51.250;6.778;2023-05-24T12:21:55;101869.16;;;21.20;32.23
22830;BME280;11581;51.250;6.778;2023-05-24T12:24:24;101885.75;;;21.25;32.50
22830;BME280;11581;51.250;6.778;2023-05-24T12:26:57;101633.38;;;19.82;32.62
22830;BME280;11581;51.250;6.778;2023-05-24T12:29:24;101783.00;;;20.72;32.76
22830;BME280;11581;51.250;6.778;2023-05-24T12:31:51;101889.66;;;21.37;32.44
22830;BME280;11581;51.250;6.778;2023-05-24T12:34:18;101914.03;;;21.51;32.33
22830;BME280;11581;51.250;6.778;2023-05-24T12:36:47;101891.97;;;21.40;32.65
22830;BME280;11581;51.250;6.778;2023-05-24T12:41:54;101884.00;;;21.53;32.96
22830;BME280;11581;51.250;6.778;2023-05-24T12:44:36;101906.75;;;21.87;32.73
22830;BME280;11581;51.250;6.778;2023-05-24T12:47:04;101893.22;;;21.94;33.00
22830;BME280;11581;51.250;6.778;2023-05-24T12:49:32;101691.38;;;20.96;33.00
22830;BME280;11581;51.250;6.778;2023-05-24T12:51:59;101906.78;;;22.57;33.04
22830;BME280;11581;51.250;6.778;2023-05-24T12:54:31;101879.81;;;22.62;32.88
22830;BME280;11581;51.250;6.778;2023-05-24T12:56:59;101705.69;;;22.09;32.88
22830;BME280;11581;51.250;6.778;2023-05-24T12:59:27;101881.53;;;23.44;32.41
22830;BME280;11581;51.250;6.778;2023-05-24T13:01:54;101641.09;;;22.45;32.23
22830;BME280;11581;51.250;6.778;2023-05-24T13:04:21;101835.78;;;24.07;32.15
22830;BME280;11581;51.250;6.778;2023-05-24T13:06:50;101794.69;;;24.28;31.84
22830;BME280;11581;51.250;6.778;2023-05-24T13:09:17;101766.50;;;24.60;31.01
22830;BME280;11581;51.250;6.778;2023-05-24T13:11:45;101813.41;;;25.38;30.40
22830;BME280;11581;51.250;6.778;2023-05-24T13:14:12;101784.88;;;25.65;30.01
22830;BME280;11581;51.250;6.778;2023-05-24T13:16:39;101875.41;;;26.56;29.33